臺東航空站 - ATIS

METAR RCFN 040200Z 36003KT 290V090 9999 FEW020 SCT040 BKN060 25/19 Q1019 NOSIG RMK A3009=

站台狀態:Offline
最後更新:2020-04-04 10:00:02